Time;durP1;ratioP1;P1;durP2;ratioP2;P2;SDS_P1;SDS_P2;PMS_P1;PMS_P2;Temp;Humidity;BMP_temperature;BMP_pressure;BME280_temperature;BME280_humidity;BME280_pressure;Samples;Min_cycle;Max_cycle;Signal;HPM_P1;HPM_P2
2022/09/04 00:00:06;;;;;;;2.20;2.10;;;24.70;54.60;25.60;100633.00;;;;5047745;28;20225;-43
2022/09/04 00:02:45;;;;;;;2.10;2.00;;;24.60;54.60;25.60;100629.00;;;;5049365;28;20208;-41
2022/09/04 00:05:15;;;;;;;2.03;1.92;;;24.70;54.70;25.60;100631.00;;;;5048876;28;20738;-43
2022/09/04 00:08:07;;;;;;;2.13;2.00;;;24.60;54.70;25.60;100645.00;;;;5047513;28;20238;-40
2022/09/04 00:10:50;;;;;;;2.20;2.10;;;24.60;54.70;25.60;100634.00;;;;5048940;28;20236;-47
2022/09/04 00:13:49;;;;;;;2.00;1.90;;;24.60;54.70;25.60;100641.00;;;;5047001;28;20277;-42
2022/09/04 00:16:21;;;;;;;2.22;2.13;;;24.60;54.60;25.50;100636.00;;;;5048220;28;20171;-43
2022/09/04 00:19:06;;;;;;;2.05;1.95;;;24.60;54.60;25.50;100649.00;;;;5049458;28;20542;-42
2022/09/04 00:21:55;;;;;;;2.28;2.15;;;24.60;54.60;25.60;100648.00;;;;5050815;28;20257;-42
2022/09/04 00:24:37;;;;;;;2.28;2.10;;;24.50;54.50;25.50;100651.00;;;;5050144;28;20167;-42
2022/09/04 00:27:26;;;;;;;2.10;2.00;;;24.50;54.50;25.50;100657.00;;;;5047267;28;20283;-41
2022/09/04 00:30:01;;;;;;;2.20;2.10;;;24.50;54.50;25.50;100659.00;;;;5046724;28;20209;-41
2022/09/04 00:32:44;;;;;;;2.03;1.92;;;24.50;54.60;25.50;100659.00;;;;5047745;28;20163;-40
2022/09/04 00:35:36;;;;;;;2.53;2.00;;;24.50;54.60;25.50;100660.00;;;;5048160;28;20158;-41
2022/09/04 00:38:21;;;;;;;2.00;1.90;;;24.40;54.80;25.50;100652.00;;;;5046764;28;20155;-41
2022/09/04 00:41:03;;;;;;;2.20;2.10;;;24.40;54.90;25.40;100659.00;;;;5051276;28;20639;-42
2022/09/04 00:43:28;;;;;;;2.15;2.05;;;24.50;55.00;25.40;100661.00;;;;5049384;28;20162;-43
2022/09/04 00:46:21;;;;;;;2.10;2.00;;;24.40;55.00;25.40;100656.00;;;;5047833;28;20438;-42
2022/09/04 00:49:20;;;;;;;2.08;1.98;;;24.40;55.00;25.40;100655.00;;;;5047613;28;20639;-43
2022/09/04 00:52:07;;;;;;;2.10;2.00;;;24.40;55.10;25.40;100660.00;;;;5047627;28;20266;-41
2022/09/04 00:54:59;;;;;;;3.00;2.13;;;24.40;55.30;25.40;100659.00;;;;5047474;28;20159;-41
2022/09/04 00:57:47;;;;;;;2.00;1.90;;;24.40;55.40;25.30;100660.00;;;;5046109;28;20163;-41
2022/09/04 01:00:16;;;;;;;2.15;2.05;;;24.40;55.60;25.30;100676.00;;;;5056034;28;20342;-48
2022/09/04 01:03:06;;;;;;;2.10;2.00;;;24.40;55.70;25.30;100654.00;;;;5067001;28;20292;-42
2022/09/04 01:06:14;;;;;;;2.00;1.90;;;24.40;55.70;25.30;100671.00;;;;5052007;28;20158;-41
2022/09/04 01:09:17;;;;;;;2.00;1.90;;;24.40;55.80;25.30;100666.00;;;;5043741;28;20273;-41
2022/09/04 01:12:16;;;;;;;2.28;2.10;;;24.40;55.90;25.30;100666.00;;;;5047397;28;20308;-42
2022/09/04 01:14:58;;;;;;;2.10;2.00;;;24.40;56.00;25.20;100679.00;;;;5025574;28;20183;-41
2022/09/04 01:17:42;;;;;;;2.17;2.07;;;24.30;55.90;25.20;100677.00;;;;5046960;28;20174;-41
2022/09/04 01:20:50;;;;;;;2.17;2.00;;;24.30;55.80;25.20;100673.00;;;;5046120;28;20288;-42
2022/09/04 01:23:48;;;;;;;2.42;2.15;;;24.30;56.50;25.20;100654.00;;;;5016463;28;20698;-42
2022/09/04 01:26:45;;;;;;;1.95;1.85;;;24.20;55.80;25.20;100671.00;;;;5045634;28;20147;-43
2022/09/04 01:29:38;;;;;;;2.13;2.03;;;24.20;55.80;25.20;100678.00;;;;5046443;28;20514;-42
2022/09/04 01:32:24;;;;;;;2.57;2.17;;;24.20;55.80;25.20;100681.00;;;;5047723;28;20158;-43
2022/09/04 01:35:07;;;;;;;2.10;2.00;;;24.10;55.70;25.10;100687.00;;;;5045854;28;20616;-41
2022/09/04 01:38:03;;;;;;;2.20;2.10;;;24.10;55.70;25.10;100683.00;;;;5047521;28;20162;-41
2022/09/04 01:40:47;;;;;;;2.17;2.08;;;24.10;55.70;25.10;100676.00;;;;5046434;28;20201;-42
2022/09/04 01:43:20;;;;;;;2.05;1.95;;;24.10;55.70;25.10;100683.00;;;;5045295;28;20165;-42
2022/09/04 01:46:17;;;;;;;2.10;1.90;;;24.10;55.60;25.10;100695.00;;;;5045613;28;20534;-41
2022/09/04 01:49:23;;;;;;;2.10;2.00;;;24.10;55.60;25.10;100691.00;;;;5045895;28;20158;-42
2022/09/04 01:52:28;;;;;;;2.07;1.97;;;24.10;55.50;25.10;100692.00;;;;5049827;28;20158;-42
2022/09/04 01:55:19;;;;;;;2.10;2.00;;;24.10;55.30;25.00;100696.00;;;;5045643;28;20162;-42
2022/09/04 01:58:02;;;;;;;2.03;1.93;;;24.00;55.20;25.00;100694.00;;;;5047702;28;20170;-44
2022/09/04 02:00:32;;;;;;;1.90;1.80;;;24.00;55.20;25.00;100688.00;;;;5046603;28;20265;-40
2022/09/04 02:03:38;;;;;;;2.33;2.13;;;24.00;55.10;25.00;100703.00;;;;5046145;28;20554;-40
2022/09/04 02:06:28;;;;;;;2.33;2.13;;;24.00;55.10;25.00;100701.00;;;;5048279;28;20162;-42
2022/09/04 02:09:10;;;;;;;2.20;2.00;;;24.00;55.00;25.00;100705.00;;;;5045833;28;20186;-41
2022/09/04 02:11:37;;;;;;;2.27;2.07;;;24.00;55.00;24.90;100703.00;;;;5046544;28;20674;-40
2022/09/04 02:14:57;;;;;;;2.30;2.10;;;23.90;55.00;24.90;100706.00;;;;5050865;28;20202;-41
2022/09/04 02:17:56;;;;;;;2.53;2.10;;;23.90;55.00;24.90;100727.00;;;;5009002;28;20331;-42
2022/09/04 02:20:27;;;;;;;2.10;2.00;;;23.90;55.00;24.90;100718.00;;;;5003437;28;20226;-41
2022/09/04 02:22:55;;;;;;;2.00;1.90;;;23.90;54.90;24.90;100718.00;;;;5038341;28;20582;-42
2022/09/04 02:25:33;;;;;;;2.30;2.20;;;23.90;54.90;24.90;100719.00;;;;5045167;28;20174;-41
2022/09/04 02:29:02;;;;;;;2.40;2.20;;;23.90;55.00;24.90;100729.00;;;;5045059;28;20158;-41
2022/09/04 02:31:40;;;;;;;2.30;2.10;;;23.80;54.90;24.80;100735.00;;;;5044829;28;20210;-41
2022/09/04 02:34:37;;;;;;;2.30;2.20;;;23.90;55.00;24.80;100730.00;;;;5046753;28;20165;-41
2022/09/04 02:37:23;;;;;;;2.30;2.10;;;23.80;54.80;24.80;100727.00;;;;5046488;28;20361;-41
2022/09/04 02:40:31;;;;;;;2.30;2.20;;;23.80;54.80;24.80;100726.00;;;;5046161;28;20663;-41
2022/09/04 02:43:15;;;;;;;2.47;2.17;;;23.80;54.80;24.80;100730.00;;;;5046011;28;20174;-40
2022/09/04 02:45:58;;;;;;;2.30;2.10;;;23.80;54.90;24.70;100729.00;;;;5044804;28;20239;-41
2022/09/04 02:48:46;;;;;;;2.13;2.03;;;23.80;55.50;24.60;100723.00;;;;5046190;28;20221;-42
2022/09/04 02:51:44;;;;;;;2.30;2.10;;;23.80;54.90;24.70;100729.00;;;;5045919;28;20190;-41
2022/09/04 02:54:16;;;;;;;2.20;2.10;;;23.80;54.90;24.70;100737.00;;;;5031488;28;20364;-40
2022/09/04 02:57:10;;;;;;;2.30;2.13;;;23.80;54.90;24.70;100720.00;;;;5049516;28;20568;-43
2022/09/04 03:00:14;;;;;;;2.10;2.00;;;23.70;54.70;24.70;100750.00;;;;5051089;28;20575;-42
2022/09/04 03:03:13;;;;;;;2.30;2.10;;;23.70;54.80;24.60;100736.00;;;;5062373;28;20288;-42
2022/09/04 03:06:03;;;;;;;2.50;2.30;;;23.70;54.80;24.60;100728.00;;;;5051232;28;20547;-40
2022/09/04 03:08:37;;;;;;;2.00;1.90;;;23.70;54.80;24.60;100741.00;;;;5048233;28;20159;-41
2022/09/04 03:11:17;;;;;;;2.40;2.20;;;23.70;54.80;24.60;100740.00;;;;5048807;28;20244;-41
2022/09/04 03:14:03;;;;;;;2.40;2.20;;;23.60;54.60;24.60;100743.00;;;;5048946;28;20516;-42
2022/09/04 03:16:59;;;;;;;2.20;2.10;;;23.70;54.80;24.60;100744.00;;;;5048723;28;20185;-41
2022/09/04 03:19:52;;;;;;;2.27;2.17;;;23.60;54.60;24.60;100753.00;;;;5048488;28;20539;-40
2022/09/04 03:22:27;;;;;;;2.50;2.30;;;23.60;54.60;24.60;100744.00;;;;5048749;28;20190;-41
2022/09/04 03:25:11;;;;;;;2.47;2.27;;;23.60;54.70;24.60;100749.00;;;;5048211;28;20169;-42
2022/09/04 03:27:37;;;;;;;2.20;2.00;;;23.60;54.70;24.60;100742.00;;;;5049218;28;20172;-42
2022/09/04 03:30:10;;;;;;;2.60;2.20;;;23.60;54.70;24.50;100745.00;;;;5048934;28;20261;-41
2022/09/04 03:33:23;;;;;;;2.20;2.10;;;23.60;54.80;24.50;100736.00;;;;5047854;28;20154;-41
2022/09/04 03:35:57;;;;;;;2.87;2.10;;;23.60;54.80;24.50;100736.00;;;;4990264;28;20658;-41
2022/09/04 03:38:50;;;;;;;2.87;2.30;;;23.60;55.30;24.50;100738.00;;;;5042611;28;20190;-42
2022/09/04 03:41:41;;;;;;;4.17;2.33;;;23.60;55.30;24.50;100738.00;;;;5047728;28;20202;-44
2022/09/04 03:44:22;;;;;;;8.73;2.67;;;23.60;55.30;24.50;100753.00;;;;5049161;28;20224;-41
2022/09/04 03:47:22;;;;;;;6.43;2.63;;;23.50;55.30;24.50;100744.00;;;;5048802;28;20169;-41
2022/09/04 03:50:35;;;;;;;4.50;2.23;;;23.50;55.30;24.50;100761.00;;;;5050124;28;20186;-42
2022/09/04 03:53:04;;;;;;;4.77;2.20;;;23.50;55.20;24.40;100758.00;;;;5028475;28;20209;-42
2022/09/04 03:56:11;;;;;;;5.37;2.47;;;23.50;55.30;24.50;100767.00;;;;5048473;28;20205;-42
2022/09/04 03:58:52;;;;;;;3.30;2.57;;;23.50;55.30;24.40;100735.00;;;;5047765;28;20612;-41
2022/09/04 04:02:03;;;;;;;6.73;2.63;;;23.50;55.30;24.40;100754.00;;;;5049790;28;20212;-41
2022/09/04 04:05:02;;;;;;;5.80;2.60;;;23.40;55.20;24.40;100764.00;;;;5035329;28;20207;-42
2022/09/04 04:08:08;;;;;;;5.07;2.70;;;23.40;55.50;24.40;100761.00;;;;5048796;28;20166;-41
2022/09/04 04:10:55;;;;;;;2.53;2.33;;;23.40;55.50;24.30;100775.00;;;;5048433;28;20201;-42
2022/09/04 04:13:51;;;;;;;3.27;2.30;;;23.40;55.60;24.30;100765.00;;;;5056830;28;20428;-42
2022/09/04 04:16:39;;;;;;;2.50;2.30;;;23.40;55.60;24.30;100764.00;;;;5052822;28;20163;-41
2022/09/04 04:19:22;;;;;;;3.90;2.40;;;23.40;55.50;24.30;100765.00;;;;5048342;28;20177;-42
2022/09/04 04:22:08;;;;;;;2.80;2.20;;;23.40;55.50;24.30;100781.00;;;;5048355;28;20387;-41
2022/09/04 04:25:00;;;;;;;2.50;2.30;;;23.40;55.50;24.30;100781.00;;;;5048197;28;20166;-41
2022/09/04 04:28:06;;;;;;;3.00;2.33;;;23.40;55.40;24.30;100783.00;;;;5050098;28;20180;-42
2022/09/04 04:30:48;;;;;;;2.57;2.20;;;23.30;55.20;24.30;100777.00;;;;5067850;28;20193;-40
2022/09/04 04:33:31;;;;;;;4.20;2.20;;;23.30;55.30;24.30;100782.00;;;;5068153;28;20181;-42
2022/09/04 04:36:01;;;;;;;2.40;2.20;;;23.30;55.40;24.20;100790.00;;;;5067575;28;20966;-42
2022/09/04 04:38:53;;;;;;;4.07;2.40;;;23.30;55.40;24.20;100783.00;;;;5067058;28;20169;-41
2022/09/04 04:42:07;;;;;;;3.27;2.40;;;23.30;55.60;24.20;100797.00;;;;5054284;28;20214;-41
2022/09/04 04:48:10;;;;;;;3.13;2.40;;;23.20;55.60;24.20;100810.00;;;;5088271;28;20295;-42
2022/09/04 04:51:04;;;;;;;3.40;2.30;;;23.20;56.00;24.20;100809.00;;;;5088419;28;20189;-40
2022/09/04 04:53:51;;;;;;;5.03;2.30;;;23.30;55.90;24.20;100805.00;;;;5087741;28;20188;-40
2022/09/04 04:56:44;;;;;;;3.00;2.70;;;23.30;56.20;24.10;100814.00;;;;5072936;28;20172;-39
2022/09/04 04:59:46;;;;;;;23.23;4.60;;;23.40;56.90;24.10;100809.00;;;;5062384;28;20234;-43
2022/09/04 05:03:24;;;;;;;17.33;4.87;;;23.40;57.10;24.10;100815.00;;;;5077048;28;20607;-40
2022/09/04 05:06:12;;;;;;;10.97;3.90;;;23.40;57.30;24.00;100816.00;;;;5009823;28;20163;-41
2022/09/04 05:08:54;;;;;;;10.50;3.40;;;23.40;57.30;24.00;100809.00;;;;5072871;28;20294;-40
2022/09/04 05:12:05;;;;;;;9.97;2.93;;;23.30;57.60;24.00;100826.00;;;;5071940;28;20216;-40
2022/09/04 05:15:00;;;;;;;5.33;2.87;;;23.30;57.60;23.90;100830.00;;;;5088439;28;20645;-41
2022/09/04 05:17:45;;;;;;;4.97;3.00;;;23.30;57.90;23.90;100829.00;;;;5087257;28;20169;-41
2022/09/04 05:20:25;;;;;;;3.17;2.70;;;23.20;58.00;23.90;100829.00;;;;5072251;28;20191;-40
2022/09/04 05:23:06;;;;;;;5.27;2.50;;;23.20;58.20;23.90;100834.00;;;;5087572;28;20171;-41
2022/09/04 05:25:57;;;;;;;3.73;2.60;;;23.20;58.50;23.90;100849.00;;;;5087908;28;20188;-40
2022/09/04 05:29:05;;;;;;;2.97;2.67;;;23.20;58.60;23.80;100854.00;;;;5086244;28;20185;-40
2022/09/04 05:32:01;;;;;;;3.40;2.57;;;23.10;58.50;23.80;100861.00;;;;5078424;28;20200;-41
2022/09/04 05:35:05;;;;;;;2.60;2.40;;;23.10;58.30;23.80;100874.00;;;;5086935;28;20165;-40
2022/09/04 05:38:09;;;;;;;3.63;2.47;;;23.20;58.10;23.80;100868.00;;;;5087782;28;20172;-41
2022/09/04 05:40:38;;;;;;;2.70;2.50;;;23.20;58.00;23.80;100871.00;;;;5086614;28;20193;-41
2022/09/04 05:43:38;;;;;;;2.70;2.50;;;23.20;57.80;23.80;100868.00;;;;5087258;28;20165;-40
2022/09/04 05:46:11;;;;;;;2.70;2.50;;;23.20;57.90;23.80;100871.00;;;;5087022;28;20240;-42
2022/09/04 05:49:05;;;;;;;2.60;2.40;;;23.20;58.10;23.80;100876.00;;;;5086219;28;20169;-42
2022/09/04 05:51:56;;;;;;;2.40;2.20;;;23.20;58.10;23.80;100882.00;;;;5071229;28;20197;-40
2022/09/04 05:54:29;;;;;;;2.63;2.43;;;23.10;58.10;23.80;100882.00;;;;5078126;28;20197;-40
2022/09/04 05:57:03;;;;;;;2.70;2.50;;;23.10;58.00;23.70;100872.00;;;;5094376;28;20181;-42
2022/09/04 06:00:03;;;;;;;2.40;2.30;;;23.10;58.20;23.80;100890.00;;;;5093293;28;20165;-41
2022/09/04 06:02:41;;;;;;;2.50;2.30;;;23.10;57.80;23.80;100894.00;;;;5086255;28;20196;-41
2022/09/04 06:05:29;;;;;;;2.70;2.50;;;23.00;57.90;23.80;100889.00;;;;5088921;28;20182;-40
2022/09/04 06:08:31;;;;;;;2.60;2.40;;;23.00;57.90;23.70;100898.00;;;;5087270;28;20169;-43
2022/09/04 06:11:34;;;;;;;3.00;2.80;;;23.00;58.20;23.70;100897.00;;;;5085630;28;20287;-40
2022/09/04 06:14:21;;;;;;;2.83;2.63;;;23.00;58.50;23.70;100903.00;;;;5086903;28;20169;-40
2022/09/04 06:17:27;;;;;;;2.60;2.40;;;23.00;58.50;23.70;100903.00;;;;5087474;28;20673;-39
2022/09/04 06:20:33;;;;;;;2.43;2.23;;;23.00;58.50;23.70;100909.00;;;;5087225;28;20759;-40
2022/09/04 06:23:18;;;;;;;2.80;2.50;;;23.00;58.50;23.70;100894.00;;;;5086543;28;20169;-41
2022/09/04 06:26:27;;;;;;;2.90;2.70;;;22.90;58.60;23.70;100916.00;;;;5070947;28;20182;-40
2022/09/04 06:29:15;;;;;;;2.70;2.50;;;22.90;58.70;23.60;100921.00;;;;5088092;28;20169;-41
2022/09/04 06:32:06;;;;;;;3.07;2.70;;;22.90;58.90;23.60;100918.00;;;;5090291;28;20168;-40
2022/09/04 06:35:09;;;;;;;3.10;2.90;;;22.90;58.80;23.60;100919.00;;;;5090254;28;20157;-39
2022/09/04 06:38:21;;;;;;;3.20;2.90;;;22.80;59.00;23.60;100915.00;;;;5090033;28;20168;-40
2022/09/04 06:41:44;;;;;;;2.80;2.60;;;22.80;58.70;23.60;100920.00;;;;5090382;28;20188;-41
2022/09/04 06:44:42;;;;;;;3.13;2.80;;;22.90;59.10;23.60;100925.00;;;;5091231;28;20180;-40
2022/09/04 06:47:39;;;;;;;2.67;2.47;;;22.90;59.10;23.60;100934.00;;;;5090604;28;20169;-39
2022/09/04 06:50:19;;;;;;;2.60;2.40;;;22.80;59.00;23.60;100924.00;;;;5091205;28;20192;-40
2022/09/04 06:53:41;;;;;;;2.50;2.30;;;22.80;59.10;23.60;100936.00;;;;5029942;28;20176;-41
2022/09/04 06:56:47;;;;;;;2.67;2.47;;;22.80;59.00;23.50;100941.00;;;;5052860;28;20850;-42
2022/09/04 06:59:33;;;;;;;2.93;2.70;;;22.80;59.20;23.50;100940.00;;;;5073377;28;20247;-42
2022/09/04 07:02:16;;;;;;;2.70;2.50;;;22.80;59.50;23.50;100927.00;;;;5069743;28;20189;-41
2022/09/04 07:05:08;;;;;;;2.77;2.30;;;22.90;59.70;23.60;100941.00;;;;5069185;28;20207;-40
2022/09/04 07:08:11;;;;;;;2.40;2.20;;;22.80;59.50;23.50;100928.00;;;;5069322;28;20520;-39
2022/09/04 07:10:51;;;;;;;2.53;2.33;;;22.70;60.50;23.50;100939.00;;;;5067040;28;20329;-41
2022/09/04 07:14:06;;;;;;;2.60;2.40;;;22.70;59.80;23.60;100942.00;;;;5053314;28;20201;-40
2022/09/04 07:16:44;;;;;;;2.90;2.70;;;22.70;60.00;23.50;100949.00;;;;5056825;28;20196;-40
2022/09/04 07:19:51;;;;;;;2.60;2.40;;;22.80;60.40;23.50;100938.00;;;;5071542;28;20157;-41
2022/09/04 07:23:01;;;;;;;2.30;2.20;;;22.80;60.20;23.50;100947.00;;;;5070510;28;20638;-41
2022/09/04 07:25:55;;;;;;;2.50;2.30;;;22.70;60.20;23.50;100951.00;;;;5076090;28;20166;-41
2022/09/04 07:28:33;;;;;;;2.50;2.30;;;22.70;60.40;23.50;100954.00;;;;5071821;28;20158;-41
2022/09/04 07:31:30;;;;;;;2.50;2.30;;;22.70;59.90;23.50;100961.00;;;;5074551;28;20193;-40
2022/09/04 07:34:22;;;;;;;3.03;2.73;;;22.70;60.30;23.60;100957.00;;;;5070791;28;20212;-42
2022/09/04 07:36:58;;;;;;;3.00;2.43;;;22.80;60.90;23.50;100957.00;;;;5069827;28;20176;-41
2022/09/04 07:40:05;;;;;;;2.67;2.47;;;22.80;60.70;23.60;100959.00;;;;5069451;28;20196;-40
2022/09/04 07:42:41;;;;;;;2.70;2.50;;;22.70;59.90;23.50;100963.00;;;;5066966;28;20424;-41
2022/09/04 07:45:29;;;;;;;4.87;2.50;;;22.80;60.70;23.50;100963.00;;;;5074051;28;20172;-40
2022/09/04 07:48:17;;;;;;;2.70;2.50;;;22.70;60.40;23.60;100942.00;;;;5095883;28;20173;-40
2022/09/04 07:51:08;;;;;;;2.60;2.40;;;22.80;60.30;23.50;100974.00;;;;5067868;28;20201;-42
2022/09/04 07:54:05;;;;;;;2.60;2.40;;;22.70;61.40;23.50;100970.00;;;;5039229;28;20764;-41
2022/09/04 07:57:07;;;;;;;2.60;2.40;;;22.70;61.40;23.50;100974.00;;;;5091251;28;20747;-41
2022/09/04 07:59:58;;;;;;;2.67;2.47;;;22.70;61.60;23.50;100982.00;;;;5090025;28;20188;-41
2022/09/04 08:02:34;;;;;;;2.50;2.30;;;22.70;61.80;23.50;100986.00;;;;5090896;28;20201;-41
2022/09/04 08:05:24;;;;;;;2.93;2.50;;;22.70;61.30;23.50;100987.00;;;;5097831;28;20172;-40
2022/09/04 08:08:22;;;;;;;2.50;2.30;;;22.60;62.80;23.50;100981.00;;;;5078938;28;20175;-42
2022/09/04 08:11:20;;;;;;;2.80;2.60;;;22.60;62.10;23.50;100980.00;;;;5090178;28;20287;-41
2022/09/04 08:14:45;;;;;;;2.80;2.60;;;22.60;61.70;23.50;100988.00;;;;5090483;28;20153;-40
2022/09/04 08:18:05;;;;;;;2.63;2.40;;;22.70;61.30;23.50;100983.00;;;;5038153;28;20282;-40
2022/09/04 08:20:40;;;;;;;2.67;2.47;;;22.70;61.10;23.50;100995.00;;;;5049944;28;20645;-40
2022/09/04 08:24:08;;;;;;;3.20;2.30;;;22.70;61.40;23.50;100991.00;;;;5051371;28;20170;-41
2022/09/04 08:26:58;;;;;;;2.60;2.40;;;22.70;61.50;23.50;100992.00;;;;5023086;28;20185;-40
2022/09/04 08:29:34;;;;;;;2.57;2.37;;;22.70;61.40;23.50;100986.00;;;;5050138;28;20594;-40
2022/09/04 08:32:31;;;;;;;2.70;2.50;;;22.70;61.30;23.50;100996.00;;;;5048799;28;20170;-40
2022/09/04 08:35:28;;;;;;;2.50;2.30;;;22.70;61.20;23.50;100996.00;;;;5050693;28;20177;-41
2022/09/04 08:38:17;;;;;;;2.53;2.20;;;22.80;61.30;23.50;100989.00;;;;5050401;28;20186;-41
2022/09/04 08:41:27;;;;;;;2.80;2.60;;;22.80;61.90;23.60;100991.00;;;;5048665;28;20813;-40
2022/09/04 08:44:21;;;;;;;2.50;2.30;;;22.80;61.50;23.50;100996.00;;;;5049563;28;20154;-39
2022/09/04 08:47:21;;;;;;;2.77;2.57;;;22.70;62.50;23.50;101006.00;;;;5053537;28;20308;-41
2022/09/04 08:50:24;;;;;;;2.70;2.50;;;22.70;62.70;23.50;101005.00;;;;5048583;28;20212;-40
2022/09/04 08:53:17;;;;;;;3.03;2.60;;;22.70;63.10;23.50;101014.00;;;;5007006;28;20654;-42
2022/09/04 08:56:17;;;;;;;2.90;2.30;;;22.80;63.10;23.60;101020.00;;;;5068821;28;20241;-42
2022/09/04 08:59:07;;;;;;;2.47;2.27;;;22.80;64.00;23.60;100999.00;;;;5069110;28;20208;-40
2022/09/04 09:02:39;;;;;;;3.20;2.90;;;22.80;64.40;23.60;101017.00;;;;5070104;28;20767;-42
2022/09/04 09:05:54;;;;;;;4.13;2.40;;;22.80;65.20;23.60;101020.00;;;;5080611;28;20215;-43
2022/09/04 09:08:56;;;;;;;3.37;2.40;;;22.80;64.30;23.60;101018.00;;;;5071301;28;20178;-41
2022/09/04 09:12:02;;;;;;;2.80;2.50;;;22.90;64.00;23.70;101018.00;;;;5069397;28;20219;-42
2022/09/04 09:14:57;;;;;;;3.03;2.47;;;22.90;64.10;23.70;101018.00;;;;5069993;28;20158;-42
2022/09/04 09:17:39;;;;;;;4.10;2.50;;;22.90;63.60;23.50;101010.00;;;;5068532;28;20158;-44
2022/09/04 09:20:24;;;;;;;4.23;2.50;;;23.00;63.30;23.70;101010.00;;;;5068291;28;20730;-42
2022/09/04 09:23:31;;;;;;;4.07;2.50;;;23.00;63.30;23.80;101023.00;;;;5053638;28;20551;-41
2022/09/04 09:26:25;;;;;;;2.60;2.20;;;23.00;63.10;23.80;101014.00;;;;5066518;28;20637;-43
2022/09/04 09:29:28;;;;;;;3.73;2.50;;;23.00;63.10;23.80;101017.00;;;;5065987;28;20173;-41
2022/09/04 09:32:41;;;;;;;3.23;2.20;;;23.00;63.40;23.80;101015.00;;;;5066249;28;20154;-43
2022/09/04 09:36:05;;;;;;;2.33;2.13;;;23.00;63.20;23.80;101004.00;;;;5067775;28;20278;-43
2022/09/04 09:38:42;;;;;;;2.80;2.17;;;23.10;63.40;23.80;101011.00;;;;5054276;28;20429;-42
2022/09/04 09:41:47;;;;;;;2.90;2.50;;;23.10;63.30;23.90;101011.00;;;;5068234;28;20315;-41
2022/09/04 09:44:58;;;;;;;2.30;2.10;;;23.10;63.50;23.90;101003.00;;;;5068624;28;20165;-43
2022/09/04 09:48:00;;;;;;;2.50;2.30;;;23.20;63.70;23.90;101006.00;;;;5075392;28;20154;-42
2022/09/04 09:51:13;;;;;;;3.63;2.30;;;23.20;63.40;23.90;101003.00;;;;5074547;28;20650;-41
2022/09/04 09:54:23;;;;;;;2.40;2.20;;;23.20;63.40;23.90;101002.00;;;;5068303;28;20191;-41
2022/09/04 09:57:14;;;;;;;2.43;2.23;;;23.20;63.50;23.90;101005.00;;;;5069327;28;20174;-42
2022/09/04 10:00:09;;;;;;;2.73;2.20;;;23.20;63.30;24.00;101005.00;;;;5067929;28;20197;-41
2022/09/04 10:03:12;;;;;;;2.30;2.10;;;23.20;63.60;24.00;101003.00;;;;5045965;28;20255;-42
2022/09/04 10:06:15;;;;;;;2.57;2.20;;;23.30;63.90;24.00;100998.00;;;;5068802;28;20196;-42
2022/09/04 10:09:14;;;;;;;2.20;2.00;;;23.40;64.10;24.00;100997.00;;;;5054576;28;20161;-41
2022/09/04 10:12:18;;;;;;;2.47;2.27;;;23.40;64.50;24.00;101000.00;;;;5069589;28;20623;-41
2022/09/04 10:15:15;;;;;;;2.53;2.30;;;23.40;64.40;24.10;101004.00;;;;5057249;28;20411;-43
2022/09/04 10:18:42;;;;;;;2.23;2.00;;;23.40;64.90;24.10;101005.00;;;;5080804;28;20161;-42
2022/09/04 10:22:00;;;;;;;2.43;2.20;;;23.40;64.40;24.10;101000.00;;;;5034664;28;20270;-42
2022/09/04 10:25:23;;;;;;;2.70;2.30;;;23.50;64.90;24.10;100996.00;;;;5069282;28;20199;-43
2022/09/04 10:28:37;;;;;;;2.50;2.30;;;23.50;64.50;24.20;101004.00;;;;5026725;28;20243;-44
2022/09/04 10:31:25;;;;;;;3.30;2.20;;;23.50;64.40;24.20;100989.00;;;;5090239;28;20193;-43
2022/09/04 10:34:15;;;;;;;5.70;2.43;;;23.60;64.90;24.20;100997.00;;;;5071346;28;20511;-43
2022/09/04 10:37:34;;;;;;;6.83;2.47;;;23.60;65.00;24.20;101002.00;;;;5068093;28;20180;-42
2022/09/04 10:40:34;;;;;;;5.53;2.40;;;23.60;64.90;24.20;101001.00;;;;5038541;28;20201;-42
2022/09/04 10:43:31;;;;;;;4.70;2.40;;;23.60;64.70;24.30;100993.00;;;;5075216;28;20165;-42
2022/09/04 10:46:11;;;;;;;3.67;2.07;;;23.60;65.10;24.30;100994.00;;;;5086652;28;20226;-42
2022/09/04 10:49:03;;;;;;;2.60;2.40;;;23.70;65.20;24.40;100999.00;;;;5070845;28;20221;-42
2022/09/04 10:52:23;;;;;;;3.03;2.27;;;23.80;65.50;24.40;100997.00;;;;5068071;28;20452;-41
2022/09/04 10:55:13;;;;;;;2.77;2.13;;;23.80;65.30;24.40;101001.00;;;;5068784;28;20177;-41
2022/09/04 10:57:58;;;;;;;3.30;2.40;;;23.80;65.40;24.40;100991.00;;;;5068579;28;20181;-43
2022/09/04 11:01:02;;;;;;;5.53;2.40;;;23.80;65.30;24.50;100996.00;;;;5067392;28;20693;-42
2022/09/04 11:04:12;;;;;;;6.00;2.43;;;23.90;65.40;24.50;100992.00;;;;5068155;28;20648;-40
2022/09/04 11:07:08;;;;;;;3.20;2.27;;;23.90;65.60;24.50;100998.00;;;;5050388;28;20559;-41
2022/09/04 11:09:52;;;;;;;3.43;2.50;;;23.90;65.50;24.50;101007.00;;;;5068503;28;20213;-41
2022/09/04 11:12:47;;;;;;;2.40;2.20;;;23.90;65.40;24.60;101000.00;;;;5068577;28;20661;-41
2022/09/04 11:15:46;;;;;;;2.90;2.60;;;24.00;65.60;24.60;101003.00;;;;5067438;28;20158;-42
2022/09/04 11:19:09;;;;;;;2.10;2.00;;;24.00;65.50;24.60;100983.00;;;;5070885;28;20200;-42
2022/09/04 11:22:02;;;;;;;2.83;2.00;;;24.00;65.40;24.60;100991.00;;;;5071760;28;20205;-42
2022/09/04 11:25:10;;;;;;;2.40;2.20;;;24.00;65.40;24.70;100990.00;;;;5072042;28;20162;-41
2022/09/04 11:28:05;;;;;;;2.57;2.37;;;24.10;65.60;24.70;100993.00;;;;5071978;28;20154;-42
2022/09/04 11:31:02;;;;;;;2.50;2.30;;;24.10;65.40;24.70;100984.00;;;;4879917;28;22245;-45
2022/09/04 11:34:14;;;;;;;2.70;2.50;;;24.10;65.50;24.80;100991.00;;;;5070403;28;20161;-41
2022/09/04 11:36:46;;;;;;;2.50;2.30;;;24.20;65.30;24.80;100985.00;;;;5055419;28;20178;-43
2022/09/04 11:40:05;;;;;;;2.60;2.40;;;24.20;65.40;24.90;100984.00;;;;5070291;28;20245;-44
2022/09/04 11:42:34;;;;;;;5.23;2.53;;;24.20;65.10;24.90;100985.00;;;;5070782;28;20213;-44
2022/09/04 11:45:02;;;;;;;7.83;2.53;;;24.30;65.90;24.90;100988.00;;;;5069912;28;20252;-42
2022/09/04 11:48:05;;;;;;;7.17;2.70;;;24.30;66.20;24.90;100986.00;;;;5070785;28;20163;-42
2022/09/04 11:51:19;;;;;;;5.57;2.70;;;24.40;66.00;25.00;100985.00;;;;5069780;28;20213;-41
2022/09/04 11:54:26;;;;;;;3.27;2.60;;;24.40;65.90;25.00;100982.00;;;;5036663;28;20224;-43
2022/09/04 11:57:27;;;;;;;3.08;2.67;;;24.50;65.90;25.10;100985.00;;;;5069572;28;20154;-44
2022/09/04 12:00:19;;;;;;;2.63;2.43;;;24.50;65.40;25.10;100987.00;;;;5070239;28;20527;-42
2022/09/04 12:03:17;;;;;;;3.97;2.70;;;24.50;65.20;25.10;100991.00;;;;5072379;28;20229;-44
2022/09/04 12:05:49;;;;;;;2.60;2.40;;;24.60;65.30;25.10;100982.00;;;;5073862;28;20173;-43
2022/09/04 12:09:15;;;;;;;4.17;2.57;;;24.60;65.20;25.20;100986.00;;;;5070055;28;20199;-43
2022/09/04 12:12:44;;;;;;;3.40;2.57;;;24.60;66.00;25.20;100985.00;;;;5062860;28;20178;-42
2022/09/04 12:15:29;;;;;;;2.83;2.63;;;24.60;64.90;25.20;100983.00;;;;4988880;28;20258;-40
2022/09/04 12:18:23;;;;;;;3.73;2.67;;;24.60;65.10;25.30;100985.00;;;;5026908;28;20208;-42
2022/09/04 12:21:11;;;;;;;5.23;2.47;;;24.70;64.90;25.30;100984.00;;;;5066847;28;20697;-41
2022/09/04 12:24:01;;;;;;;4.40;2.80;;;24.70;64.80;25.30;100981.00;;;;5070365;28;20590;-42
2022/09/04 12:26:53;;;;;;;3.00;2.70;;;24.80;64.60;25.30;100977.00;;;;5070531;28;20156;-42
2022/09/04 12:29:45;;;;;;;3.93;2.80;;;24.80;64.70;25.40;100979.00;;;;5061804;28;20197;-41
2022/09/04 12:32:41;;;;;;;4.03;2.57;;;24.80;64.50;25.40;100977.00;;;;5069851;28;20165;-43
2022/09/04 12:36:12;;;;;;;3.60;2.57;;;24.90;64.70;25.50;100984.00;;;;5072172;28;20162;-42
2022/09/04 12:38:38;;;;;;;4.20;2.57;;;24.80;64.50;25.50;100971.00;;;;5072202;28;20185;-41
2022/09/04 12:41:09;;;;;;;3.77;2.70;;;24.90;64.70;25.50;100982.00;;;;5070975;28;20198;-43
2022/09/04 12:44:26;;;;;;;4.07;2.67;;;24.90;64.50;25.60;100982.00;;;;5070691;28;20174;-42
2022/09/04 12:47:14;;;;;;;2.70;2.50;;;24.90;64.50;25.60;100978.00;;;;5056839;28;20810;-42